Station: Coonawarra  

  Atmospheric Gas Attenuation - ITU Rec 676-11   ----------------- dB/100km -----------------
Date Time Temp RH % AH g/m3 Dew Point Wind Direction Speed kph Gust kph Barometer mB Rainfall Since 9am 24GHz 47GHz 76GHz 122GHz 134GHz 241GHz
07/05 07:00 2.3 92 5.22 1.1 4 9 1026.1 1.8 12.8 24.1 31.8 82.7 66.2 223.7
07/05 06:50 2.1 91 5.1 0.8 0 0 1026 1.8 12.6 23.9 31.3 81.5 64.7 218.6
07/05 06:40 2.3 90 5.11 0.8 0 0 1025.8 1.8 12.6 23.9 31.3 81.4 64.7 218.4
07/05 06:30 2.7 90 5.25 1.2 0 0 1025.7 1.8 12.9 24.0 31.7 82.5 66.2 224.0
07/05 06:20 2.7 89 5.19 1.1 0 2 1025.8 1.8 12.7 23.9 31.5 81.9 65.4 221.1
07/05 06:10 2.9 86 5.08 0.8 0 0 1025.9 1.8 12.5 23.7 30.9 80.5 63.8 215.4
07/05 06:00 3.3 85 5.16 1 7 9 1025.8 1.8 12.6 23.7 31.1 80.9 64.5 218.0
07/05 05:50 3.9 82 5.18 1.1 7 9 1025.7 1.8 12.7 23.6 31.0 80.5 64.3 217.3
07/05 05:40 3.9 87 5.5 1.9 15 22 1025.5 1.8 13.4 24.1 32.2 84.0 68.5 232.3
07/05 05:30 2.9 88 5.2 1.1 7 9 1025.3 1.8 12.7 23.8 31.4 81.7 65.3 220.9
07/05 05:20 2.9 86 5.08 0.8 9 9 1025.3 1.8 12.5 23.6 30.9 80.4 63.7 215.3
07/05 05:10 3.2 86 5.19 1.1 11 13 1025.3 1.8 12.7 23.7 31.3 81.3 65.0 219.6
07/05 05:00 3 87 5.18 1.1 11 15 1025.2 1.8 12.7 23.8 31.3 81.4 65.0 219.7
07/05 04:50 2.7 91 5.31 1.4 13 13 1025.3 1.8 13.0 24.1 31.9 83.2 67.0 226.7
07/05 04:40 1.6 94 5.09 0.7 17 19 1025.3 1.8 12.6 24.0 31.5 81.9 64.9 219.3
07/05 04:30 1.4 94 5.02 0.5 11 11 1025.2 1.8 12.4 23.9 31.3 81.3 64.1 216.5
07/05 04:20 1.5 95 5.11 0.8 11 11 1025.1 1.8 12.6 24.1 31.6 82.2 65.3 220.5
07/05 04:10 1.6 96 5.2 1 11 13 1025 1.8 12.8 24.2 31.9 83.1 66.4 224.6
07/05 04:00 0.7 94 4.79 -0.2 7 11 1025 1.8 11.9 23.7 30.6 79.5 61.6 207.3
07/05 03:50 1.1 95 4.97 0.4 7 7 1024.9 1.8 12.3 23.9 31.2 81.1 63.7 214.9
07/05 03:40 0.9 94 4.85 0 9 9 1024.8 1.8 12.1 23.8 30.7 79.9 62.2 209.7
07/05 03:30 0.6 93 4.7 -0.4 7 7 1024.8 1.8 11.7 23.6 30.2 78.6 60.4 203.3
07/05 03:20 0.8 93 4.77 -0.2 7 7 1024.6 1.8 11.9 23.7 30.4 79.1 61.2 206.1
07/05 03:10 1.5 94 5.05 0.6 6 6 1024.5 1.8 12.5 23.9 31.3 81.5 64.4 217.5
07/05 03:00 1.5 94 5.05 0.6 6 7 1024.5 1.8 12.5 23.9 31.3 81.5 64.4 217.5
07/05 02:50 2 94 5.23 1.1 7 7 1024.7 1.8 12.8 24.1 31.9 83.0 66.5 224.8
07/05 02:40 1.7 93 5.07 0.7 7 9 1024.9 1.8 12.5 23.9 31.3 81.5 64.6 218.0
07/05 02:30 2 93 5.17 1 7 9 1024.7 1.8 12.7 24.0 31.6 82.3 65.7 221.9
07/05 02:20 2.5 93 5.35 1.5 7 9 1024.8 1.8 13.1 24.2 32.2 83.8 67.7 229.1
07/05 02:10 2.8 93 5.46 1.8 7 9 1024.7 1.8 13.3 24.3 32.5 84.7 68.9 233.5
07/05 02:00 2.8 91 5.34 1.5 4 7 1024.5 1.8 13.0 24.1 32.0 83.3 67.3 227.7
07/05 01:50 3.3 91 5.53 2 6 6 1024.6 1.8 13.4 24.2 32.6 84.9 69.4 235.3
07/05 01:40 3.9 91 5.75 2.6 9 9 1024.6 1.8 13.9 24.4 33.2 86.6 71.9 244.0
07/05 01:30 4.2 89 5.74 2.6 9 11 1024.6 1.8 13.9 24.3 33.1 86.2 71.5 242.6
07/05 01:20 4.8 88 5.91 3 9 11 1024.5 1.8 14.2 24.5 33.5 87.4 73.2 248.8
07/05 01:10 5.6 85 6.01 3.3 9 9 1024.4 1.8 14.4 24.4 33.6 87.6 73.8 251.0
07/05 01:00 6 86 6.25 3.8 9 11 1024.4 1.8 14.9 24.7 34.4 89.8 76.6 261.0
07/05 00:50 6.3 85 6.3 4 11 13 1024.4 1.8 15.0 24.7 34.5 90.0 77.0 262.4
07/05 00:40 6.3 86 6.37 4.1 15 19 1024.5 1.8 15.1 24.8 34.8 90.7 78.0 265.7
07/05 00:30 6 88 6.39 4.2 17 26 1024.6 1.8 15.2 24.9 35.0 91.3 78.5 267.7
07/05 00:20 5.6 94 6.65 4.7 22 30 1024.7 1.8 15.8 25.5 36.2 94.7 82.5 281.6
07/05 00:10 4.1 91 5.83 2.8 7 9 1024.2 1.6 14.1 24.5 33.5 87.3 72.7 247.1
07/05 00:00 4.3 89 5.78 2.7 7 9 1024 1.6 13.9 24.4 33.2 86.5 71.9 244.1
06/05 23:50 5.1 86 5.89 3 7 7 1024 1.6 14.1 24.3 33.3 86.8 72.6 246.8
06/05 23:40 5.8 85 6.09 3.5 7 9 1024 1.6 14.5 24.5 33.8 88.2 74.6 254.0
06/05 23:30 6.2 84 6.18 3.7 13 17 1024 1.6 14.7 24.5 34.0 88.7 75.5 256.9
06/05 23:20 6.6 82 6.19 3.8 13 17 1023.9 1.6 14.7 24.4 33.9 88.4 75.2 256.1
06/05 23:10 7 81 6.28 4 19 20 1024 1.6 14.9 24.4 34.1 88.9 76.0 259.0
06/05 23:00 7.2 80 6.28 4 17 24 1024.1 1.6 14.9 24.4 34.0 88.7 75.8 258.4
06/05 22:50 6.9 83 6.39 4.2 19 24 1024.2 1.6 15.2 24.7 34.6 90.2 77.6 264.6
06/05 22:40 6.8 84 6.43 4.3 13 17 1024 1.6 15.2 24.7 34.8 90.8 78.2 266.7
06/05 22:30 7.1 81 6.32 4.1 13 17 1023.7 1.6 15.0 24.5 34.2 89.2 76.4 260.5
06/05 22:20 7.5 78 6.25 3.9 13 15 1023.8 1.6 14.8 24.3 33.7 88.0 75.1 255.9
06/05 22:10 8 75 6.2 3.8 15 19 1024 1.6 14.7 24.0 33.3 86.9 74.0 252.1
06/05 22:00 8.1 73 6.08 3.6 17 22 1024 1.6 14.4 23.8 32.8 85.5 72.3 246.2
06/05 21:50 8.2 70 5.86 3.1 17 20 1023.8 1.6 14.0 23.4 31.9 83.1 69.4 235.9
06/05 21:40 8 69 5.71 2.7 20 26 1023.8 1.6 13.7 23.3 31.4 81.8 67.6 229.7
06/05 21:30 6.7 77 5.85 3 11 15 1023.5 1.6 14.0 23.8 32.4 84.6 70.6 239.9
06/05 21:20 6 81 5.88 3 11 11 1023.3 1.6 14.1 24.0 32.8 85.6 71.6 243.4
06/05 21:10 5.5 84 5.9 3 11 11 1023.3 1.6 14.2 24.2 33.1 86.4 72.3 245.9
06/05 21:00 5.6 84 5.94 3.1 9 11 1023.2 1.6 14.2 24.2 33.2 86.7 72.8 247.4
06/05 20:50 5.7 82 5.84 2.9 9 11 1023.1 1.6 14.0 24.0 32.8 85.5 71.3 242.4
06/05 20:40 6.1 81 5.92 3.1 7 9 1023.1 1.6 14.2 24.1 33.0 85.9 72.0 244.9
06/05 20:30 6.2 80 5.89 3 9 11 1023 1.6 14.1 24.0 32.8 85.5 71.5 243.2
06/05 20:20 6.6 79 5.97 3.2 7 9 1023.1 1.6 14.3 24.0 32.9 85.9 72.2 245.7
06/05 20:10 7 77 5.97 3.3 11 13 1023.1 1.6 14.2 23.9 32.8 85.5 71.9 244.4
06/05 20:00 7.4 76 6.05 3.5 11 13 1023 1.6 14.4 23.9 32.9 85.9 72.5 246.8
06/05 19:50 8 73 6.04 3.5 11 13 1022.8 1.6 14.4 23.7 32.6 85.1 71.8 244.5
06/05 19:40 8.3 73 6.16 3.8 13 15 1022.8 1.6 14.6 23.9 33.0 86.1 73.1 249.0
06/05 19:30 8.5 73 6.24 3.9 15 17 1022.7 1.6 14.8 23.9 33.2 86.7 74.0 252.0
06/05 19:20 8.8 74 6.44 4.4 15 17 1022.5 1.6 15.2 24.2 33.9 88.4 76.3 260.2
06/05 19:10 9.2 74 6.61 4.8 15 17 1022.3 1.6 15.5 24.3 34.4 89.8 78.1 266.6
06/05 19:00 9.6 75 6.87 5.4 17 24 1022.2 1.6 16.1 24.6 35.2 92.1 81.1 277.2
06/05 18:50 10 76 7.14 6 17 19 1022.2 1.6 16.6 24.9 36.1 94.5 84.2 288.3
06/05 18:40 10.3 77 7.38 6.5 20 24 1022.1 1.6 17.1 25.2 37.0 96.7 87.1 298.3
06/05 18:30 10.4 81 7.81 7.3 20 30 1022.1 1.6 18.0 25.9 38.7 101.3 92.7 318.1
06/05 18:20 10.8 78 7.71 7.1 30 39 1022 1.6 17.8 25.6 38.1 99.6 90.9 311.8
06/05 18:10 10.9 81 8.06 7.8 19 22 1021.8 1.6 18.6 26.2 39.4 103.3 95.5 327.8
06/05 18:00 11.1 82 8.26 8.1 20 35 1021.5 1.6 19.0 26.4 40.1 105.2 97.9 336.4
06/05 17:50 11.1 83 8.36 8.3 19 20 1021.3 1.6 19.2 26.6 40.6 106.3 99.3 341.1
06/05 17:40 11.1 81 8.16 8 20 24 1021.1 1.6 18.8 26.3 39.7 104.1 96.5 331.6
06/05 17:30 11.4 78 8.01 7.7 28 50 1020.9 1.6 18.4 25.9 38.9 102.0 94.1 323.2
06/05 17:20 11.7 78 8.16 8 24 28 1020.7 1.6 18.7 26.1 39.4 103.2 95.8 328.9
06/05 17:10 12.2 76 8.2 8.1 24 33 1020.5 1.6 18.8 26.0 39.3 103.0 95.7 328.6
06/05 17:00 12.5 76 8.36 8.4 22 33 1020.2 1.6 19.1 26.1 39.8 104.3 97.4 334.8
06/05 16:50 12.5 78 8.58 8.8 22 32 1020.2 1.6 19.6 26.5 40.7 106.7 100.4 345.2
06/05 16:40 12.7 78 8.68 9 24 28 1020.1 1.6 19.8 26.6 41.0 107.5 101.5 349.0
06/05 16:30 12.8 82 9.19 9.8 22 30 1020.1 1.6 20.9 27.4 43.1 113.0 108.3 372.8
06/05 16:20 12.9 85 9.58 10.4 22 26 1019.9 1.6 21.7 28.1 44.6 117.2 113.5 391.1
06/05 16:10 12.7 88 9.8 10.8 20 24 1019.9 1.6 22.2 28.5 45.7 120.0 116.9 402.9
06/05 16:00 12.8 89 9.97 11 22 35 1019.7 1.6 22.6 28.7 46.3 121.8 119.1 410.7
06/05 15:50 12.8 90 10.08 11.2 24 26 1019.6 1.6 22.8 28.9 46.8 123.1 120.7 416.1
06/05 15:40 12.6 91 10.07 11.2 24 32 1019.5 1.6 22.8 29.0 46.9 123.2 120.8 416.7
06/05 15:30 12.4 92 10.05 11.1 28 41 1019.4 1.6 22.8 29.0 46.9 123.3 120.8 416.7
06/05 15:20 12.4 94 10.27 11.5 30 52 1019.3 1.6 23.2 29.4 47.9 125.9 124.0 427.7
06/05 15:10 12.7 92 10.24 11.4 33 43 1019.1 1.4 23.2 29.2 47.5 125.0 123.0 424.5
06/05 15:00 13.2 93 10.68 12.1 30 43 1019 1.4 24.1 29.8 49.1 129.3 128.5 443.6
06/05 14:50 14 91 10.98 12.6 24 35 1018.8 1.2 24.7 30.1 49.9 131.4 131.4 454.0
06/05 14:40 14.2 87 10.62 12.1 35 41 1018.6 1.2 23.9 29.4 48.2 126.9 125.9 434.8
06/05 14:30 15.9 80 10.83 12.5 26 35 1018.2 1 24.2 29.1 48.1 126.5 126.1 435.4

Last Refresh: 07-May-2026 07:09:35

Bureau of Meteorology